createdAt,value
2023-05-12T00:01:15.165Z,65.00
2023-05-12T00:04:03.155Z,64.50
2023-05-12T00:06:49.957Z,65.80
2023-05-12T00:09:37.070Z,66.42
2023-05-12T00:12:23.549Z,65.80
2023-05-12T00:15:11.291Z,67.32
2023-05-12T00:17:58.605Z,66.68
2023-05-12T00:20:46.489Z,66.58
2023-05-12T00:23:33.185Z,66.93
2023-05-12T00:26:21.258Z,66.53
2023-05-12T00:29:08.349Z,67.81
2023-05-12T00:31:57.835Z,69.38
2023-05-12T00:34:44.499Z,68.95
2023-05-12T00:37:35.132Z,68.95
2023-05-12T00:40:22.024Z,69.23
2023-05-12T00:43:08.888Z,69.01
2023-05-12T00:45:55.983Z,68.82
2023-05-12T00:48:42.807Z,69.68
2023-05-12T00:51:29.685Z,70.70
2023-05-12T00:54:18.383Z,69.15
2023-05-12T00:57:05.758Z,68.67
2023-05-12T00:59:52.960Z,68.18
2023-05-12T01:02:40.330Z,67.91
2023-05-12T01:05:34.392Z,69.65
2023-05-12T01:08:21.656Z,68.76
2023-05-12T01:11:09.809Z,69.34
2023-05-12T01:13:57.076Z,70.86
2023-05-12T01:16:51.723Z,72.23
2023-05-12T01:19:43.164Z,73.12
2023-05-12T01:22:33.889Z,71.68
2023-05-12T01:25:24.898Z,70.08
2023-05-12T01:28:15.273Z,69.87
2023-05-12T01:31:02.479Z,70.45
2023-05-12T01:33:49.301Z,75.75
2023-05-12T01:36:36.235Z,74.68
2023-05-12T01:39:23.129Z,75.19
2023-05-12T01:42:09.957Z,77.11
2023-05-12T01:44:58.630Z,76.23
2023-05-12T01:47:47.103Z,75.95
2023-05-12T01:50:34.121Z,76.83
2023-05-12T01:53:21.566Z,77.42
2023-05-12T01:56:08.571Z,78.31
2023-05-12T01:58:55.963Z,77.51
2023-05-12T02:01:44.217Z,77.27
2023-05-12T02:04:34.712Z,78.17
2023-05-12T02:07:21.740Z,79.24
2023-05-12T02:10:09.744Z,80.63
2023-05-12T02:12:56.252Z,80.53
2023-05-12T02:15:43.511Z,81.54
2023-05-12T02:18:31.897Z,82.44
2023-05-12T02:21:18.887Z,81.75
2023-05-12T02:24:16.983Z,82.22
2023-05-12T02:27:06.509Z,83.53
2023-05-12T02:29:53.181Z,82.70
2023-05-12T02:32:40.236Z,84.06
2023-05-12T02:35:31.755Z,85.16
2023-05-12T02:38:19.207Z,84.67
2023-05-12T02:41:09.112Z,84.31
2023-05-12T02:44:15.022Z,85.67
2023-05-12T02:47:05.512Z,87.30
2023-05-12T02:49:56.701Z,87.25
2023-05-12T02:52:54.900Z,85.69
2023-05-12T02:55:42.105Z,85.14
2023-05-12T02:58:29.086Z,84.94
2023-05-12T03:01:16.228Z,85.89
2023-05-12T03:04:03.000Z,87.65
2023-05-12T03:06:49.868Z,87.80
2023-05-12T03:09:40.794Z,88.52
2023-05-12T03:12:29.356Z,88.99
2023-05-12T03:15:16.683Z,90.16
2023-05-12T03:18:03.658Z,89.86
2023-05-12T03:20:51.165Z,89.85
2023-05-12T03:23:37.949Z,90.10
2023-05-12T03:26:26.237Z,89.92
2023-05-12T03:29:12.941Z,89.47
2023-05-12T03:31:59.856Z,90.70
2023-05-12T03:34:46.667Z,89.49
2023-05-12T03:37:33.440Z,89.08
2023-05-12T03:40:20.618Z,91.24
2023-05-12T03:43:11.694Z,91.64
2023-05-12T03:46:00.150Z,88.92
2023-05-12T03:48:47.248Z,89.21
2023-05-12T03:51:33.783Z,91.57
2023-05-12T03:54:25.178Z,91.21
2023-05-12T03:57:13.605Z,93.70
2023-05-12T04:00:02.269Z,92.91
2023-05-12T04:03:02.205Z,91.03
2023-05-12T04:05:50.215Z,88.18
2023-05-12T04:08:36.606Z,89.19
2023-05-12T04:11:23.692Z,91.97
2023-05-12T04:14:10.572Z,91.61
2023-05-12T04:16:58.861Z,91.19
2023-05-12T04:19:47.612Z,89.26
2023-05-12T04:22:34.524Z,90.50
2023-05-12T04:25:23.414Z,91.05
2023-05-12T04:28:12.077Z,89.71
2023-05-12T04:31:05.541Z,89.87
2023-05-12T04:33:56.804Z,89.47
2023-05-12T04:36:45.112Z,87.16
2023-05-12T04:39:32.965Z,88.47
2023-05-12T04:42:22.733Z,89.08
2023-05-12T04:45:19.439Z,89.12
2023-05-12T04:48:08.983Z,93.36
2023-05-12T04:50:59.923Z,87.42
2023-05-12T04:53:46.529Z,91.37
2023-05-12T04:56:39.318Z,84.86
2023-05-12T04:59:29.921Z,82.16
2023-05-12T05:02:21.772Z,72.99
2023-05-12T05:05:10.094Z,70.86
2023-05-12T05:08:05.302Z,59.98
2023-05-12T05:10:56.308Z,57.66
2023-05-12T05:13:45.494Z,52.54
2023-05-12T05:16:36.768Z,50.53
2023-05-12T05:19:40.845Z,48.41
2023-05-12T05:22:34.786Z,47.89
2023-05-12T05:25:27.287Z,49.67
2023-05-12T05:28:17.343Z,48.17
2023-05-12T05:31:06.285Z,47.97
2023-05-12T05:33:55.131Z,47.68
2023-05-12T05:36:48.133Z,48.12
2023-05-12T05:39:38.797Z,49.49
2023-05-12T05:42:29.072Z,46.21
2023-05-12T05:45:16.059Z,47.73
2023-05-12T05:48:02.581Z,46.11
2023-05-12T05:50:50.166Z,45.47
2023-05-12T05:53:37.428Z,46.74
2023-05-12T05:56:24.298Z,45.95
2023-05-12T05:59:22.454Z,44.95
2023-05-12T06:02:11.094Z,44.43
2023-05-12T06:05:00.226Z,45.11
2023-05-12T06:07:49.604Z,46.33
2023-05-12T06:10:36.395Z,45.61
2023-05-12T06:13:23.276Z,46.66
2023-05-12T06:16:11.481Z,48.40
2023-05-12T06:18:59.248Z,47.73
2023-05-12T06:21:46.067Z,47.14
2023-05-12T06:24:32.909Z,46.63
2023-05-12T06:27:19.832Z,47.26
2023-05-12T06:30:10.569Z,47.10
2023-05-12T06:32:59.606Z,47.30
2023-05-12T06:35:57.114Z,47.42
2023-05-12T06:38:46.070Z,49.30
2023-05-12T06:41:33.752Z,47.29
2023-05-12T06:44:20.622Z,47.55
2023-05-12T06:47:11.673Z,47.56
2023-05-12T06:50:05.293Z,50.29
2023-05-12T06:52:52.402Z,48.06
2023-05-12T06:55:41.837Z,48.23
2023-05-12T06:58:28.347Z,48.26
2023-05-12T07:01:15.120Z,48.09
2023-05-12T07:04:02.008Z,49.01
2023-05-12T07:06:52.646Z,48.39
2023-05-12T07:09:40.670Z,47.82
2023-05-12T07:12:29.638Z,47.33
2023-05-12T07:15:18.896Z,50.09
2023-05-12T07:18:08.927Z,49.68
2023-05-12T07:20:55.893Z,47.99
2023-05-12T07:23:44.070Z,49.11
2023-05-12T07:26:30.799Z,47.18
2023-05-12T07:29:17.805Z,46.35
2023-05-12T07:32:04.465Z,47.19
2023-05-12T07:34:51.122Z,46.93
2023-05-12T07:37:38.001Z,45.41
2023-05-12T07:40:26.325Z,47.09
2023-05-12T07:43:13.176Z,47.48
2023-05-12T07:46:03.640Z,46.95
2023-05-12T07:48:53.447Z,45.17
2023-05-12T07:51:40.378Z,44.90
2023-05-12T07:54:27.366Z,46.39
2023-05-12T07:57:15.446Z,46.92
2023-05-12T08:00:04.949Z,45.56
2023-05-12T08:02:59.377Z,45.98
2023-05-12T08:05:46.496Z,45.26
2023-05-12T08:08:33.462Z,44.52
2023-05-12T08:11:20.312Z,42.88
2023-05-12T08:14:08.331Z,43.04
2023-05-12T08:16:55.097Z,42.39
2023-05-12T08:19:42.080Z,40.44
2023-05-12T08:22:31.073Z,42.96
2023-05-12T08:25:18.131Z,41.34
2023-05-12T08:28:05.030Z,40.39
2023-05-12T08:30:53.313Z,41.95
2023-05-12T08:33:39.969Z,40.04
2023-05-12T08:36:27.447Z,39.54
2023-05-12T08:39:14.399Z,39.36
2023-05-12T08:42:13.581Z,37.11
2023-05-12T08:45:01.234Z,37.11
2023-05-12T08:47:52.436Z,37.38
2023-05-12T08:50:40.902Z,35.89
2023-05-12T08:53:34.110Z,35.21
2023-05-12T08:59:13.988Z,33.67
2023-05-12T09:02:04.582Z,35.89
2023-05-12T09:04:55.016Z,32.71
2023-05-12T09:07:44.883Z,33.17
2023-05-12T09:10:35.482Z,33.06
2023-05-12T09:13:29.065Z,30.02
2023-05-12T09:16:21.122Z,31.11
2023-05-12T09:19:07.873Z,32.38
2023-05-12T09:21:59.505Z,34.51
2023-05-12T09:24:48.398Z,31.59
2023-05-12T09:27:37.080Z,30.04
2023-05-12T09:30:38.497Z,29.43
2023-05-12T09:33:27.460Z,32.07
2023-05-12T09:36:19.708Z,29.61
2023-05-12T09:39:12.142Z,30.95
2023-05-12T09:42:01.236Z,29.66
2023-05-12T09:44:50.094Z,31.30
2023-05-12T09:47:40.308Z,30.54
2023-05-12T09:50:30.620Z,29.95
2023-05-12T09:53:23.087Z,31.07
2023-05-12T09:56:19.862Z,29.36
2023-05-12T09:59:06.885Z,30.32
2023-05-12T10:02:05.882Z,28.43
2023-05-12T10:04:59.902Z,28.09
2023-05-12T10:07:55.883Z,28.60
2023-05-12T10:10:45.534Z,28.43
2023-05-12T10:13:40.681Z,28.03
2023-05-12T10:16:30.630Z,28.35
2023-05-12T10:19:21.186Z,28.88
2023-05-12T10:22:16.010Z,27.37
2023-05-12T10:25:06.015Z,27.63
2023-05-12T10:27:54.247Z,27.53
2023-05-12T10:30:47.215Z,28.11
2023-05-12T10:33:34.361Z,28.40
2023-05-12T10:36:23.843Z,27.71
2023-05-12T10:39:25.007Z,28.76
2023-05-12T10:42:14.048Z,26.95
2023-05-12T10:45:08.288Z,29.54
2023-05-12T10:48:07.099Z,27.54
2023-05-12T10:50:56.523Z,27.23
2023-05-12T10:53:52.584Z,28.79
2023-05-12T10:56:50.078Z,30.03
2023-05-12T11:00:01.668Z,27.92
2023-05-12T11:03:42.368Z,27.42
2023-05-12T11:07:07.868Z,29.40
2023-05-12T11:13:34.453Z,27.35
2023-05-12T11:16:59.154Z,27.80
2023-05-12T11:19:58.378Z,26.61
2023-05-12T11:22:49.019Z,27.80
2023-05-12T11:25:49.545Z,29.64
2023-05-12T11:28:42.811Z,27.94
2023-05-12T11:31:35.217Z,28.06
2023-05-12T11:34:28.497Z,27.67
2023-05-12T11:37:22.695Z,29.21
2023-05-12T11:40:18.854Z,30.36
2023-05-12T11:43:18.925Z,28.74
2023-05-12T11:46:09.158Z,28.25
2023-05-12T11:48:57.359Z,30.96
2023-05-12T11:51:44.926Z,32.21
2023-05-12T11:54:33.219Z,30.11
2023-05-12T11:57:36.085Z,28.49
2023-05-12T12:00:29.581Z,29.84
2023-05-12T12:03:32.986Z,28.98
2023-05-12T12:06:23.046Z,29.42
2023-05-12T12:09:13.024Z,28.83
2023-05-12T12:12:04.083Z,29.42
2023-05-12T12:14:52.991Z,30.30
2023-05-12T12:17:40.506Z,28.11
2023-05-12T12:20:30.268Z,28.86
2023-05-12T12:26:22.686Z,27.53
2023-05-12T12:29:13.416Z,27.65
2023-05-12T12:32:02.428Z,26.32
2023-05-12T12:34:49.544Z,26.95
2023-05-12T12:37:40.462Z,28.69
2023-05-12T12:40:27.056Z,26.15
2023-05-12T12:43:14.131Z,26.75
2023-05-12T12:46:04.759Z,27.48
2023-05-12T12:48:53.599Z,26.59
2023-05-12T12:51:46.129Z,27.55
2023-05-12T12:54:37.097Z,27.52
2023-05-12T12:57:23.903Z,24.77
2023-05-12T13:00:12.078Z,25.22
2023-05-12T13:03:02.376Z,24.94
2023-05-12T13:05:51.208Z,26.21
2023-05-12T13:08:39.331Z,26.57
2023-05-12T13:11:28.974Z,26.77
2023-05-12T13:14:16.161Z,25.29
2023-05-12T13:17:02.937Z,25.49
2023-05-12T13:19:52.804Z,27.23
2023-05-12T13:22:42.025Z,27.98
2023-05-12T13:25:34.421Z,27.69
2023-05-12T13:28:28.588Z,29.54
2023-05-12T13:31:17.821Z,27.08
2023-05-12T13:34:05.534Z,27.43
2023-05-12T13:36:53.845Z,28.69
2023-05-12T13:39:42.900Z,28.23
2023-05-12T13:42:31.830Z,29.04
2023-05-12T13:45:21.666Z,27.76
2023-05-12T13:48:11.103Z,28.47
2023-05-12T13:51:01.243Z,29.33
2023-05-12T13:53:59.133Z,30.33
2023-05-12T13:56:45.875Z,29.03
2023-05-12T13:59:35.078Z,26.98
2023-05-12T14:02:23.981Z,28.89
2023-05-12T14:05:11.017Z,28.73
2023-05-12T14:07:59.581Z,27.88
2023-05-12T14:10:50.280Z,27.68
2023-05-12T14:13:37.458Z,28.97
2023-05-12T14:16:26.748Z,28.23
2023-05-12T14:19:14.405Z,29.95
2023-05-12T14:22:03.166Z,29.09
2023-05-12T14:24:54.887Z,28.05
2023-05-12T14:27:42.847Z,28.01
2023-05-12T14:30:32.084Z,28.32
2023-05-12T14:33:21.627Z,26.81
2023-05-12T14:36:11.383Z,28.70
2023-05-12T14:38:59.464Z,27.03
2023-05-12T14:41:48.636Z,27.70
2023-05-12T14:44:39.362Z,29.09
2023-05-12T14:47:26.307Z,28.46
2023-05-12T14:50:13.708Z,28.73
2023-05-12T14:53:01.410Z,27.79
2023-05-12T14:55:48.589Z,28.24
2023-05-12T14:58:35.158Z,27.89
2023-05-12T15:01:26.208Z,29.27
2023-05-12T15:04:15.733Z,27.78
2023-05-12T15:07:02.549Z,27.22
2023-05-12T15:09:52.187Z,27.66
2023-05-12T15:12:38.659Z,28.92
2023-05-12T15:15:25.520Z,27.90
2023-05-12T15:18:18.658Z,28.23
2023-05-12T15:21:08.849Z,28.10
2023-05-12T15:23:57.010Z,27.05
2023-05-12T15:26:46.017Z,27.18
2023-05-12T15:29:35.183Z,27.24
2023-05-12T15:32:22.957Z,27.36
2023-05-12T15:35:19.037Z,27.10
2023-05-12T15:38:10.996Z,26.52
2023-05-12T15:40:57.454Z,26.78
2023-05-12T15:43:44.644Z,27.17
2023-05-12T15:46:33.949Z,28.64
2023-05-12T15:49:23.335Z,28.16
2023-05-12T15:52:13.688Z,28.49
2023-05-12T15:55:05.450Z,28.79
2023-05-12T15:57:54.768Z,26.72
2023-05-12T16:00:45.947Z,27.10
2023-05-12T16:03:34.849Z,26.98
2023-05-12T16:06:24.540Z,26.82
2023-05-12T16:09:13.746Z,27.68
2023-05-12T16:12:03.776Z,27.27
2023-05-12T16:14:54.428Z,27.69
2023-05-12T16:17:41.980Z,27.90
2023-05-12T16:20:29.188Z,26.98
2023-05-12T16:23:16.557Z,27.00
2023-05-12T16:26:13.547Z,27.47
2023-05-12T16:29:02.636Z,28.48
2023-05-12T16:31:52.894Z,29.17
2023-05-12T16:37:32.316Z,27.03
2023-05-12T16:40:19.222Z,28.18
2023-05-12T16:43:09.503Z,29.52
2023-05-12T16:46:05.691Z,28.16
2023-05-12T16:48:54.952Z,28.31
2023-05-12T16:51:44.836Z,28.38
2023-05-12T16:54:32.955Z,27.81
2023-05-12T16:57:21.132Z,28.09
2023-05-12T17:00:15.446Z,28.78
2023-05-12T17:03:03.729Z,28.17
2023-05-12T17:05:52.968Z,28.03
2023-05-12T17:08:39.848Z,28.79
2023-05-12T17:11:27.504Z,29.41
2023-05-12T17:14:14.901Z,28.21
2023-05-12T17:17:08.715Z,28.40
2023-05-12T17:20:04.479Z,29.14
2023-05-12T17:23:05.595Z,28.75
2023-05-12T17:25:55.404Z,29.42
2023-05-12T17:28:45.557Z,29.34
2023-05-12T17:31:33.217Z,29.37
2023-05-12T17:34:24.505Z,29.87
2023-05-12T17:37:26.497Z,29.90
2023-05-12T17:40:38.093Z,30.89
2023-05-12T17:43:25.546Z,31.20
2023-05-12T17:46:12.406Z,31.28
2023-05-12T17:49:01.565Z,31.82
2023-05-12T17:51:53.214Z,32.02
2023-05-12T17:54:47.647Z,32.43
2023-05-12T17:58:14.090Z,32.97
2023-05-12T18:01:08.452Z,33.38
2023-05-12T18:04:07.747Z,34.21
2023-05-12T18:07:01.162Z,35.21
2023-05-12T18:09:51.410Z,35.93
2023-05-12T18:12:41.239Z,37.48
2023-05-12T18:15:30.250Z,38.50
2023-05-12T18:18:19.389Z,38.70
2023-05-12T18:21:06.725Z,39.28
2023-05-12T18:23:55.014Z,39.85
2023-05-12T18:26:43.350Z,39.63
2023-05-12T18:29:29.791Z,40.32
2023-05-12T18:32:18.959Z,40.41
2023-05-12T18:35:06.217Z,40.59
2023-05-12T18:37:55.625Z,40.69
2023-05-12T18:40:44.091Z,41.17
2023-05-12T18:43:33.066Z,41.64
2023-05-12T18:46:22.411Z,41.68
2023-05-12T18:49:14.627Z,42.13
2023-05-12T18:52:03.638Z,42.48
2023-05-12T18:54:50.485Z,42.94
2023-05-12T18:57:40.936Z,43.66
2023-05-12T19:00:32.143Z,44.43
2023-05-12T19:03:18.861Z,44.84
2023-05-12T19:06:05.818Z,46.35
2023-05-12T19:08:52.830Z,45.97
2023-05-12T19:11:39.511Z,46.48
2023-05-12T19:14:55.602Z,46.58
2023-05-12T19:17:42.306Z,46.67
2023-05-12T19:20:32.974Z,47.61
2023-05-12T19:23:22.052Z,47.32
2023-05-12T19:26:19.694Z,49.20
2023-05-12T19:29:20.037Z,50.80
2023-05-12T19:32:09.130Z,51.15
2023-05-12T19:35:00.424Z,51.96
2023-05-12T19:37:49.533Z,52.55
2023-05-12T19:40:36.635Z,51.87
2023-05-12T19:43:23.397Z,51.70
2023-05-12T19:46:13.179Z,55.16
2023-05-12T19:49:02.868Z,52.86
2023-05-12T19:51:53.925Z,54.03
2023-05-12T19:54:42.750Z,54.98
2023-05-12T19:57:29.550Z,56.81
2023-05-12T20:00:19.350Z,56.95
2023-05-12T20:03:06.765Z,57.27
2023-05-12T20:06:01.543Z,57.64
2023-05-12T20:08:48.088Z,56.93
2023-05-12T20:11:37.482Z,56.48
2023-05-12T20:14:24.331Z,56.75
2023-05-12T20:17:17.103Z,56.19
2023-05-12T20:20:05.541Z,55.65
2023-05-12T20:22:58.838Z,56.83
2023-05-12T20:25:48.668Z,57.14
2023-05-12T20:28:35.711Z,57.40
2023-05-12T20:31:24.772Z,60.04
2023-05-12T20:34:11.243Z,59.33
2023-05-12T20:36:58.231Z,59.60
2023-05-12T20:39:47.055Z,59.59
2023-05-12T20:42:36.807Z,62.85
2023-05-12T20:45:23.899Z,61.86
2023-05-12T20:48:15.095Z,62.22
2023-05-12T20:51:11.556Z,63.02
2023-05-12T20:54:00.492Z,62.79
2023-05-12T20:56:53.071Z,64.21
2023-05-12T20:59:42.065Z,64.69
2023-05-12T21:02:31.886Z,64.43
2023-05-12T21:05:21.980Z,66.19
2023-05-12T21:08:08.807Z,65.87
2023-05-12T21:10:55.824Z,65.94
2023-05-12T21:14:03.912Z,65.45
2023-05-12T21:16:50.479Z,65.84
2023-05-12T21:19:39.629Z,66.84
2023-05-12T21:22:30.373Z,66.25
2023-05-12T21:25:17.837Z,67.37
2023-05-12T21:28:05.070Z,66.35
2023-05-12T21:30:58.733Z,67.27
2023-05-12T21:33:48.261Z,68.73
2023-05-12T21:36:34.820Z,67.43
2023-05-12T21:39:22.123Z,67.80
2023-05-12T21:42:09.704Z,67.63
2023-05-12T21:44:59.058Z,69.88
2023-05-12T21:47:53.329Z,69.25
2023-05-12T21:50:40.382Z,68.64
2023-05-12T21:53:29.064Z,69.12
2023-05-12T21:56:17.266Z,68.07
2023-05-12T21:59:06.473Z,68.97
2023-05-12T22:01:53.183Z,69.09
2023-05-12T22:04:41.457Z,69.13
2023-05-12T22:07:32.372Z,68.70
2023-05-12T22:10:19.230Z,69.60
2023-05-12T22:13:08.470Z,69.20
2023-05-12T22:15:55.185Z,69.31
2023-05-12T22:18:45.916Z,68.09
2023-05-12T22:21:36.118Z,68.66
2023-05-12T22:24:24.705Z,68.52
2023-05-12T22:27:11.308Z,71.06
2023-05-12T22:29:58.189Z,72.52
2023-05-12T22:32:45.093Z,73.77
2023-05-12T22:35:32.863Z,72.53
2023-05-12T22:38:23.910Z,74.12
2023-05-12T22:41:11.401Z,75.62
2023-05-12T22:43:59.002Z,75.36
2023-05-12T22:46:48.051Z,75.58
2023-05-12T22:49:36.860Z,75.34
2023-05-12T22:52:25.600Z,74.42
2023-05-12T22:55:23.348Z,74.01
2023-05-12T22:58:14.570Z,74.01
2023-05-12T23:01:02.304Z,73.01
2023-05-12T23:03:56.890Z,72.23
2023-05-12T23:06:43.537Z,71.63
2023-05-12T23:09:37.842Z,72.07
2023-05-12T23:12:28.048Z,72.08
2023-05-12T23:15:17.292Z,71.35
2023-05-12T23:18:08.944Z,70.43
2023-05-12T23:20:58.278Z,70.62
2023-05-12T23:23:44.885Z,70.39
2023-05-12T23:26:32.948Z,70.67
2023-05-12T23:29:23.405Z,70.72
2023-05-12T23:32:10.945Z,71.31
2023-05-12T23:34:58.890Z,70.42
2023-05-12T23:37:47.796Z,70.39
2023-05-12T23:40:41.721Z,70.12
2023-05-12T23:43:28.272Z,73.03
2023-05-12T23:46:18.407Z,72.51
2023-05-12T23:49:15.514Z,73.63
2023-05-12T23:52:04.888Z,73.21
2023-05-12T23:54:51.525Z,73.30
2023-05-12T23:57:43.882Z,74.33
